createdAt,value
2017-12-11T00:19:04.504Z,7.3
2017-12-11T00:20:18.122Z,7.32
2017-12-11T00:21:31.795Z,7.34
2017-12-11T00:22:45.845Z,7.36
2017-12-11T00:23:59.533Z,7.38
2017-12-11T00:25:13.370Z,7.4
2017-12-11T00:26:27.309Z,7.44
2017-12-11T00:27:41.513Z,7.45
2017-12-11T00:54:08.424Z,7.85
2017-12-11T00:55:22.063Z,7.87
2017-12-11T00:56:35.663Z,7.87
2017-12-11T00:57:49.115Z,7.89
2017-12-11T00:59:02.682Z,7.9
2017-12-11T01:00:16.068Z,7.89
2017-12-11T01:01:29.702Z,7.88
2017-12-11T01:02:43.359Z,7.86
2017-12-11T01:03:56.744Z,7.86
2017-12-11T01:05:10.681Z,7.86
2017-12-11T01:06:24.899Z,7.88
2017-12-11T01:07:39.460Z,7.88
2017-12-11T01:08:53.370Z,7.86
2017-12-11T01:10:07.426Z,7.84
2017-12-11T01:11:21.153Z,7.81
2017-12-11T01:12:34.881Z,7.82
2017-12-11T01:13:48.436Z,7.82
2017-12-11T01:15:02.008Z,7.82
2017-12-11T01:16:15.360Z,7.82
2017-12-11T01:17:28.782Z,7.82
2017-12-11T01:18:42.621Z,7.8
2017-12-11T01:19:56.038Z,7.77
2017-12-11T01:21:24.476Z,7.72
2017-12-11T01:22:38.049Z,7.7
2017-12-11T01:23:51.408Z,7.68
2017-12-11T01:25:04.858Z,7.66
2017-12-11T01:26:18.268Z,7.64
2017-12-11T01:27:32.344Z,7.62
2017-12-11T01:28:46.015Z,7.59
2017-12-11T01:29:59.629Z,7.56
2017-12-11T01:31:16.532Z,7.53
2017-12-11T01:32:30.632Z,7.51
2017-12-11T01:33:45.047Z,7.49
2017-12-11T01:34:59.328Z,7.48
2017-12-11T01:36:12.936Z,7.44
2017-12-11T01:37:27.045Z,7.4
2017-12-11T01:38:40.577Z,7.37
2017-12-11T01:39:54.087Z,7.33
2017-12-11T01:41:07.550Z,7.33
2017-12-11T01:42:21.223Z,7.31
2017-12-11T01:43:34.789Z,7.31
2017-12-11T01:44:48.345Z,7.27
2017-12-11T01:46:01.978Z,7.27
2017-12-11T01:47:15.728Z,7.26
2017-12-11T01:48:36.065Z,7.25
2017-12-11T01:49:49.513Z,7.24
2017-12-11T01:51:03.909Z,7.23
2017-12-11T01:52:17.486Z,7.23
2017-12-11T01:53:30.906Z,7.22
2017-12-11T01:54:44.432Z,7.23
2017-12-11T01:55:58.088Z,7.23
2017-12-11T01:57:11.911Z,7.24
2017-12-11T01:58:25.341Z,7.25
2017-12-11T01:59:38.917Z,7.29
2017-12-11T02:00:52.551Z,7.3
2017-12-11T02:02:06.495Z,7.31
2017-12-11T02:03:19.851Z,7.32
2017-12-11T02:04:33.218Z,7.33
2017-12-11T02:05:46.619Z,7.36
2017-12-11T02:07:00.500Z,7.4
2017-12-11T02:08:14.810Z,7.41
2017-12-11T02:09:28.229Z,7.43
2017-12-11T02:10:41.598Z,7.44
2017-12-11T02:11:54.986Z,7.46
2017-12-11T02:13:08.333Z,7.49
2017-12-11T02:14:21.811Z,7.52
2017-12-11T02:15:35.435Z,7.55
2017-12-11T02:16:48.798Z,7.57
2017-12-11T02:18:02.788Z,7.6
2017-12-11T02:19:16.154Z,7.62
2017-12-11T02:20:29.724Z,7.63
2017-12-11T02:21:43.922Z,7.65
2017-12-11T02:22:57.725Z,7.65
2017-12-11T02:24:11.550Z,7.66
2017-12-11T02:25:25.003Z,7.65
2017-12-11T02:26:38.415Z,7.64
2017-12-11T02:27:51.829Z,7.64
2017-12-11T02:29:05.670Z,7.64
2017-12-11T02:30:19.091Z,7.63
2017-12-11T02:31:33.000Z,7.63
2017-12-11T02:32:46.386Z,7.64
2017-12-11T02:33:59.982Z,7.63
2017-12-11T02:35:13.843Z,7.62
2017-12-11T02:36:27.553Z,7.6
2017-12-11T02:37:41.479Z,7.6
2017-12-11T02:38:55.260Z,7.59
2017-12-11T02:40:08.634Z,7.59
2017-12-11T02:41:22.286Z,7.58
2017-12-11T02:42:35.768Z,7.59
2017-12-11T02:43:49.269Z,7.59
2017-12-11T02:45:03.576Z,7.58
2017-12-11T02:46:17.668Z,7.59
2017-12-11T02:47:31.340Z,7.59
2017-12-11T02:48:45.444Z,7.61
2017-12-11T02:49:59.318Z,7.62
2017-12-11T02:51:12.671Z,7.63
2017-12-11T02:52:26.290Z,7.64
2017-12-11T02:53:40.078Z,7.66
2017-12-11T02:54:53.869Z,7.68
2017-12-11T02:56:07.558Z,7.69
2017-12-11T02:57:21.006Z,7.72
2017-12-11T02:58:34.779Z,7.77
2017-12-11T02:59:48.175Z,7.78
2017-12-11T03:01:02.548Z,7.8
2017-12-11T03:02:16.332Z,7.81
2017-12-11T03:03:29.857Z,7.81
2017-12-11T03:04:44.172Z,7.81
2017-12-11T03:05:58.515Z,7.82
2017-12-11T03:07:11.945Z,7.82
2017-12-11T03:08:25.500Z,7.82
2017-12-11T03:09:38.935Z,7.83
2017-12-11T03:10:52.339Z,7.83
2017-12-11T03:12:05.836Z,7.82
2017-12-11T03:13:19.253Z,7.84
2017-12-11T03:14:33.091Z,7.84
2017-12-11T03:15:46.532Z,7.84
2017-12-11T03:17:00.312Z,7.86
2017-12-11T03:18:14.135Z,7.87
2017-12-11T03:19:27.729Z,7.86
2017-12-11T03:20:41.242Z,7.86
2017-12-11T03:21:55.201Z,7.88
2017-12-11T03:23:09.015Z,7.9
2017-12-11T03:24:22.395Z,7.95
2017-12-11T03:25:35.754Z,8
2017-12-11T03:26:49.126Z,8.03
2017-12-11T03:28:02.484Z,8.08
2017-12-11T03:29:15.983Z,8.12
2017-12-11T03:30:29.556Z,8.16
2017-12-11T03:31:43.810Z,8.22
2017-12-11T03:32:57.256Z,8.27
2017-12-11T03:34:11.194Z,8.32
2017-12-11T03:35:25.008Z,8.35
2017-12-11T03:36:39.661Z,8.39
2017-12-11T03:37:53.390Z,8.41
2017-12-11T03:39:08.034Z,8.43
2017-12-11T03:40:22.120Z,8.46
2017-12-11T03:41:37.037Z,8.44
2017-12-11T03:42:51.202Z,8.44
2017-12-11T03:44:05.130Z,8.45
2017-12-11T03:45:19.247Z,8.46
2017-12-11T03:46:32.654Z,8.47
2017-12-11T03:47:46.387Z,8.48
2017-12-11T03:48:59.827Z,8.48
2017-12-11T03:50:13.490Z,8.48
2017-12-11T03:51:27.560Z,8.49
2017-12-11T03:52:41.721Z,8.51
2017-12-11T03:53:55.124Z,8.53
2017-12-11T03:55:08.547Z,8.56
2017-12-11T03:56:22.012Z,8.58
2017-12-11T03:57:35.409Z,8.61
2017-12-11T03:58:48.792Z,8.65
2017-12-11T04:00:03.260Z,8.7
2017-12-11T04:01:17.195Z,8.76
2017-12-11T04:02:30.899Z,8.78
2017-12-11T04:03:45.015Z,8.79
2017-12-11T04:04:58.690Z,8.78
2017-12-11T04:06:13.132Z,8.75
2017-12-11T04:07:27.537Z,8.68
2017-12-11T04:08:41.915Z,8.61
2017-12-11T04:09:55.366Z,8.56
2017-12-11T04:11:08.791Z,8.49
2017-12-11T04:12:23.321Z,8.44
2017-12-11T04:13:36.873Z,8.4
2017-12-11T04:14:50.938Z,8.37
2017-12-11T04:16:06.169Z,8.36
2017-12-11T04:17:20.188Z,8.35
2017-12-11T04:18:33.654Z,8.3
2017-12-11T04:19:47.728Z,8.28
2017-12-11T04:21:01.394Z,8.25
2017-12-11T04:22:15.034Z,8.24
2017-12-11T04:23:29.053Z,8.23
2017-12-11T04:24:42.724Z,8.2
2017-12-11T04:25:57.123Z,8.18
2017-12-11T04:27:11.043Z,8.16
2017-12-11T04:28:25.078Z,8.17
2017-12-11T04:29:39.622Z,8.17
2017-12-11T04:30:54.060Z,8.21
2017-12-11T04:32:08.017Z,8.22
2017-12-11T04:33:23.052Z,8.23
2017-12-11T04:34:37.659Z,8.24
2017-12-11T04:35:52.914Z,8.26
2017-12-11T04:37:06.432Z,8.28
2017-12-11T04:38:20.054Z,8.29
2017-12-11T04:39:33.582Z,8.31
2017-12-11T04:40:46.970Z,8.28
2017-12-11T04:42:00.715Z,8.27
2017-12-11T04:43:14.280Z,8.24
2017-12-11T04:44:29.141Z,8.21
2017-12-11T04:45:43.305Z,8.2
2017-12-11T04:46:57.709Z,8.18
2017-12-11T04:48:11.539Z,8.19
2017-12-11T04:49:26.163Z,8.19
2017-12-11T04:50:40.580Z,8.19
2017-12-11T04:51:54.290Z,8.18
2017-12-11T04:53:08.883Z,8.18
2017-12-11T04:54:23.607Z,8.15
2017-12-11T04:55:37.714Z,8.14
2017-12-11T04:56:51.296Z,8.12
2017-12-11T04:58:05.163Z,8.11
2017-12-11T04:59:19.119Z,8.1
2017-12-11T05:00:33.213Z,8.09
2017-12-11T05:01:46.641Z,8.07
2017-12-11T05:03:00.675Z,8.06
2017-12-11T05:04:14.037Z,8.04
2017-12-11T05:05:28.827Z,8.05
2017-12-11T05:06:43.285Z,8.06
2017-12-11T05:07:57.171Z,8.07
2017-12-11T05:09:12.171Z,8.1
2017-12-11T05:10:26.005Z,8.14
2017-12-11T05:11:39.447Z,8.15
2017-12-11T05:12:53.993Z,8.2
2017-12-11T05:14:08.060Z,8.22
2017-12-11T05:15:22.067Z,8.24
2017-12-11T05:16:35.517Z,8.28
2017-12-11T05:17:48.874Z,8.31
2017-12-11T05:19:02.396Z,8.34
2017-12-11T05:20:17.480Z,8.37
2017-12-11T05:21:31.832Z,8.41
2017-12-11T05:22:45.683Z,8.45
2017-12-11T05:24:00.082Z,8.48
2017-12-11T05:25:15.159Z,8.49
2017-12-11T05:26:29.226Z,8.52
2017-12-11T05:27:43.614Z,8.53
2017-12-11T05:28:58.991Z,8.56
2017-12-11T05:30:13.432Z,8.55
2017-12-11T05:31:28.461Z,8.54
2017-12-11T05:32:42.210Z,8.55
2017-12-11T05:33:56.075Z,8.56
2017-12-11T05:35:09.737Z,8.55
2017-12-11T05:36:23.621Z,8.56
2017-12-11T05:37:37.823Z,8.6
2017-12-11T05:38:51.971Z,8.6
2017-12-11T05:40:05.399Z,8.57
2017-12-11T05:41:18.740Z,8.57
2017-12-11T05:42:32.324Z,8.54
2017-12-11T05:43:46.620Z,8.51
2017-12-11T05:45:00.342Z,8.5
2017-12-11T05:46:14.011Z,8.5
2017-12-11T05:47:28.373Z,8.5
2017-12-11T05:48:42.213Z,8.48
2017-12-11T05:49:55.690Z,8.46
2017-12-11T05:51:09.105Z,8.43
2017-12-11T05:52:22.524Z,8.41
2017-12-11T05:53:36.091Z,8.39
2017-12-11T05:54:51.307Z,8.33
2017-12-11T05:56:05.619Z,8.32
2017-12-11T05:57:19.937Z,8.3
2017-12-11T05:58:34.239Z,8.28
2017-12-11T05:59:48.402Z,8.28
2017-12-11T06:01:02.425Z,8.27
2017-12-11T06:02:16.051Z,8.25
2017-12-11T06:03:31.110Z,8.28
2017-12-11T06:04:45.697Z,8.29
2017-12-11T06:06:00.689Z,8.31
2017-12-11T06:07:14.715Z,8.33
2017-12-11T06:08:28.972Z,8.34
2017-12-11T06:09:43.538Z,8.36
2017-12-11T06:10:58.140Z,8.37
2017-12-11T06:12:15.425Z,8.33
2017-12-11T06:13:30.202Z,8.32
2017-12-11T06:14:44.947Z,8.31
2017-12-11T06:15:58.999Z,8.3
2017-12-11T06:17:12.732Z,8.29
2017-12-11T06:18:26.732Z,8.3
2017-12-11T06:19:40.996Z,8.31
2017-12-11T06:20:54.487Z,8.32
2017-12-11T06:22:07.924Z,8.36
2017-12-11T06:23:21.772Z,8.37
2017-12-11T06:24:35.674Z,8.36
2017-12-11T06:25:49.258Z,8.35
2017-12-11T06:27:02.639Z,8.35
2017-12-11T06:28:16.445Z,8.34
2017-12-11T06:29:29.906Z,8.34
2017-12-11T06:30:43.693Z,8.35
2017-12-11T06:31:57.270Z,8.37
2017-12-11T06:33:10.806Z,8.39
2017-12-11T06:34:24.205Z,8.39
2017-12-11T06:35:38.227Z,8.41
2017-12-11T06:36:51.652Z,8.44
2017-12-11T06:38:05.210Z,8.44
2017-12-11T06:39:19.420Z,8.46
2017-12-11T06:40:32.769Z,8.48
2017-12-11T06:41:46.240Z,8.5
2017-12-11T06:42:59.715Z,8.54
2017-12-11T06:44:13.285Z,8.56
2017-12-11T06:45:27.142Z,8.57
2017-12-11T06:46:41.097Z,8.57
2017-12-11T06:47:54.902Z,8.58
2017-12-11T06:49:08.685Z,8.6
2017-12-11T06:50:23.269Z,8.61
2017-12-11T06:51:37.806Z,8.62
2017-12-11T06:52:51.645Z,8.64
2017-12-11T06:54:05.071Z,8.68
2017-12-11T06:55:18.620Z,8.69
2017-12-11T06:56:32.863Z,8.71
2017-12-11T06:57:46.429Z,8.71
2017-12-11T06:59:00.028Z,8.69
2017-12-11T07:00:13.988Z,8.69
2017-12-11T07:01:28.023Z,8.68
2017-12-11T07:02:42.124Z,8.66
2017-12-11T07:03:56.162Z,8.66
2017-12-11T07:05:10.046Z,8.68
2017-12-11T07:06:23.565Z,8.7
2017-12-11T07:07:37.323Z,8.71
2017-12-11T07:08:51.091Z,8.71
2017-12-11T07:10:05.260Z,8.73
2017-12-11T07:11:18.904Z,8.73
2017-12-11T07:12:32.998Z,8.71
2017-12-11T07:13:46.842Z,8.69
2017-12-11T07:15:01.210Z,8.66
2017-12-11T07:16:14.888Z,8.62
2017-12-11T07:17:40.049Z,8.61
2017-12-11T07:18:55.398Z,8.59
2017-12-11T07:20:11.112Z,8.56
2017-12-11T07:21:25.017Z,8.56
2017-12-11T07:22:39.538Z,8.53
2017-12-11T07:23:53.774Z,8.51
2017-12-11T07:25:08.694Z,8.47
2017-12-11T07:26:22.987Z,8.44
2017-12-11T07:27:39.698Z,8.4
2017-12-11T07:28:53.701Z,8.37
2017-12-11T07:30:08.021Z,8.34
2017-12-11T07:31:23.987Z,8.32
2017-12-11T07:32:39.823Z,8.35
2017-12-11T07:33:55.650Z,8.36
2017-12-11T07:35:10.845Z,8.37
2017-12-11T07:36:25.840Z,8.35
2017-12-11T07:37:41.539Z,8.34
2017-12-11T07:38:56.134Z,8.33
2017-12-11T07:40:09.828Z,8.3
2017-12-11T07:41:23.829Z,8.26
2017-12-11T07:42:37.210Z,8.25
2017-12-11T07:43:50.814Z,8.22
2017-12-11T07:45:05.433Z,8.22
2017-12-11T07:46:20.530Z,8.21
2017-12-11T07:47:34.140Z,8.22
2017-12-11T07:48:48.324Z,8.22
2017-12-11T07:50:02.032Z,8.2
2017-12-11T07:51:16.007Z,8.2
2017-12-11T07:52:29.513Z,8.2
2017-12-11T07:53:43.088Z,8.19
2017-12-11T07:54:57.556Z,8.22
2017-12-11T07:56:11.340Z,8.21
2017-12-11T07:57:26.081Z,8.22
2017-12-11T07:58:40.056Z,8.23
2017-12-11T07:59:55.775Z,8.23
2017-12-11T08:01:10.485Z,8.22
2017-12-11T08:02:25.869Z,8.22
2017-12-11T08:03:40.517Z,8.21
2017-12-11T08:04:55.845Z,8.22
2017-12-11T08:06:10.087Z,8.2
2017-12-11T08:07:25.159Z,8.19
2017-12-11T08:08:40.445Z,8.18
2017-12-11T08:09:54.867Z,8.18
2017-12-11T08:11:08.759Z,8.17
2017-12-11T08:12:22.946Z,8.15
2017-12-11T08:13:36.637Z,8.17
2017-12-11T08:14:51.412Z,8.16
2017-12-11T08:16:05.757Z,8.16
2017-12-11T08:17:19.890Z,8.16
2017-12-11T08:18:34.014Z,8.15
2017-12-11T08:19:48.022Z,8.14
2017-12-11T08:21:01.494Z,8.14
2017-12-11T08:22:14.915Z,8.18
2017-12-11T08:23:28.287Z,8.19
2017-12-11T08:24:41.885Z,8.22
2017-12-11T08:25:55.302Z,8.26
2017-12-11T08:27:09.481Z,8.27
2017-12-11T08:28:24.825Z,8.28
2017-12-11T08:29:40.738Z,8.28
2017-12-11T08:30:54.914Z,8.28
2017-12-11T08:32:09.497Z,8.29
2017-12-11T08:33:27.505Z,8.3
2017-12-11T08:34:42.291Z,8.32
2017-12-11T08:35:57.981Z,8.33
2017-12-11T08:37:14.290Z,8.34
2017-12-11T08:38:28.605Z,8.38
2017-12-11T08:39:43.836Z,8.41
2017-12-11T08:40:58.838Z,8.4
2017-12-11T08:42:13.975Z,8.43
2017-12-11T08:43:31.764Z,8.44
2017-12-11T08:45:05.494Z,8.44
2017-12-11T08:46:20.650Z,8.44
2017-12-11T08:47:37.448Z,8.45
2017-12-11T08:48:53.227Z,8.47
2017-12-11T08:50:08.948Z,8.47
2017-12-11T08:51:26.538Z,8.48
2017-12-11T08:52:42.763Z,8.47
2017-12-11T08:54:15.861Z,8.45
2017-12-11T08:55:45.057Z,8.43
2017-12-11T08:57:06.025Z,8.46
2017-12-11T08:58:22.326Z,8.51
2017-12-11T08:59:38.040Z,8.58
2017-12-11T09:00:56.464Z,8.64
2017-12-11T09:02:18.592Z,8.68
2017-12-11T09:04:33.300Z,8.77
2017-12-11T09:06:15.261Z,8.88
2017-12-11T09:07:32.246Z,8.91
2017-12-11T09:08:47.376Z,8.85
2017-12-11T09:10:03.346Z,8.84
2017-12-11T09:11:17.964Z,8.8
2017-12-11T09:12:34.065Z,8.79
2017-12-11T09:13:48.269Z,8.78
2017-12-11T09:15:03.312Z,8.76
2017-12-11T09:16:18.194Z,8.76
2017-12-11T09:17:32.849Z,8.7
2017-12-11T09:18:46.596Z,8.67
2017-12-11T09:20:00.642Z,8.65
2017-12-11T09:21:14.332Z,8.6
2017-12-11T09:22:28.163Z,8.59
2017-12-11T09:23:41.836Z,8.56
2017-12-11T09:24:55.313Z,8.53
2017-12-11T09:26:08.694Z,8.52
2017-12-11T09:27:22.297Z,8.49
2017-12-11T09:28:35.772Z,8.47
2017-12-11T09:29:49.205Z,8.48
2017-12-11T09:31:02.908Z,8.43
2017-12-11T09:32:17.486Z,8.42
2017-12-11T09:33:35.498Z,8.41
2017-12-11T09:34:50.122Z,8.37
2017-12-11T09:36:03.696Z,8.35
2017-12-11T09:37:17.440Z,8.35
2017-12-11T09:38:32.197Z,8.37
2017-12-11T09:39:46.568Z,8.39
2017-12-11T09:41:12.206Z,8.39
2017-12-11T09:42:54.734Z,8.4
2017-12-11T09:44:08.709Z,8.42
2017-12-11T09:45:22.538Z,8.41
2017-12-11T09:46:37.300Z,8.42
2017-12-11T09:47:52.100Z,8.41
2017-12-11T09:49:07.140Z,8.38
2017-12-11T09:50:27.070Z,8.37
2017-12-11T09:52:05.009Z,8.32
2017-12-11T09:53:25.509Z,8.33
2017-12-11T09:54:42.319Z,8.31
2017-12-11T09:55:56.985Z,8.31
2017-12-11T09:57:14.042Z,8.31
2017-12-11T09:58:41.290Z,8.3
2017-12-11T10:01:02.859Z,8.3
2017-12-11T10:03:56.705Z,8.27
2017-12-11T10:05:13.429Z,8.25
2017-12-11T10:06:31.312Z,8.22
2017-12-11T10:07:47.317Z,8.22
2017-12-11T10:09:00.819Z,8.23
2017-12-11T10:10:14.493Z,8.25
2017-12-11T10:11:28.353Z,8.26
2017-12-11T10:12:42.555Z,8.25
2017-12-11T10:13:56.773Z,8.24
2017-12-11T10:15:12.784Z,8.27
2017-12-11T10:16:27.268Z,8.29
2017-12-11T10:17:40.992Z,8.32
2017-12-11T10:18:54.685Z,8.34
2017-12-11T10:20:09.030Z,8.37
2017-12-11T10:21:22.697Z,8.39
2017-12-11T10:22:37.168Z,8.44
2017-12-11T10:23:50.856Z,8.45
2017-12-11T10:25:04.621Z,8.49
2017-12-11T10:26:18.029Z,8.54
2017-12-11T10:27:33.153Z,8.6
2017-12-11T10:28:49.465Z,8.66
2017-12-11T10:30:12.005Z,8.72
2017-12-11T10:31:41.953Z,8.77
2017-12-11T10:33:54.464Z,8.8
2017-12-11T10:35:35.692Z,8.86
2017-12-11T10:36:50.142Z,8.91
2017-12-11T10:38:05.046Z,8.95
2017-12-11T10:39:19.334Z,8.98
2017-12-11T10:40:33.975Z,8.98
2017-12-11T10:41:50.439Z,8.98
2017-12-11T10:43:05.969Z,8.96
2017-12-11T10:44:20.484Z,8.91
2017-12-11T10:45:36.004Z,8.88
2017-12-11T10:46:51.322Z,8.88
2017-12-11T10:48:06.935Z,8.9
2017-12-11T10:49:20.885Z,8.91
2017-12-11T10:50:35.100Z,8.93
2017-12-11T10:51:48.638Z,8.94
2017-12-11T10:53:02.126Z,8.94
2017-12-11T10:54:16.540Z,8.94
2017-12-11T10:55:31.118Z,8.92
2017-12-11T10:56:46.100Z,8.95
2017-12-11T10:58:00.510Z,8.99
2017-12-11T10:59:14.185Z,9.03
2017-12-11T11:00:28.080Z,9.09
2017-12-11T11:01:41.477Z,9.12
2017-12-11T11:02:55.045Z,9.12
2017-12-11T11:04:08.736Z,9.12
2017-12-11T11:05:22.408Z,9.09
2017-12-11T11:06:37.090Z,9.06
2017-12-11T11:07:50.806Z,9.03
2017-12-11T11:09:05.744Z,9.03
2017-12-11T11:10:27.469Z,9.04
2017-12-11T11:13:59.954Z,9.05
2017-12-11T11:15:57.764Z,9.06
2017-12-11T11:17:12.494Z,9.09
2017-12-11T11:18:26.930Z,9.1
2017-12-11T11:19:42.546Z,9.12
2017-12-11T11:21:04.506Z,9.15
2017-12-11T11:22:21.140Z,9.16
2017-12-11T11:23:50.745Z,9.17
2017-12-11T11:25:08.818Z,9.2
2017-12-11T11:26:25.029Z,9.2
2017-12-11T11:27:38.966Z,9.19
2017-12-11T11:28:53.208Z,9.22
2017-12-11T11:30:07.205Z,9.25
2017-12-11T11:31:21.072Z,9.27
2017-12-11T11:32:35.304Z,9.27
2017-12-11T11:33:49.282Z,9.28
2017-12-11T11:35:03.045Z,9.31
2017-12-11T11:36:18.099Z,9.35
2017-12-11T11:37:32.268Z,9.4
2017-12-11T11:38:47.936Z,9.47
2017-12-11T11:40:01.601Z,9.52
2017-12-11T11:41:15.443Z,9.56
2017-12-11T11:42:29.050Z,9.6
2017-12-11T11:43:43.195Z,9.63
2017-12-11T11:44:58.868Z,9.71
2017-12-11T11:46:14.112Z,9.79
2017-12-11T11:47:29.263Z,9.9
2017-12-11T11:48:43.243Z,9.98
2017-12-11T11:49:57.275Z,10.05
2017-12-11T11:51:11.913Z,10.1
2017-12-11T11:52:25.602Z,10.12
2017-12-11T11:53:39.004Z,10.13
2017-12-11T11:54:53.446Z,10.13
2017-12-11T11:56:07.724Z,10.16
2017-12-11T11:57:21.642Z,10.15
2017-12-11T11:58:36.722Z,10.13
2017-12-11T11:59:51.695Z,10.12
2017-12-11T12:01:07.381Z,10.13
2017-12-11T12:02:22.922Z,10.13
2017-12-11T12:03:38.151Z,10.12
2017-12-11T12:04:54.061Z,10.13
2017-12-11T12:06:08.192Z,10.15
2017-12-11T12:07:23.066Z,10.16
2017-12-11T12:08:39.422Z,10.17
2017-12-11T12:09:52.904Z,10.19
2017-12-11T12:11:06.600Z,10.18
2017-12-11T12:12:20.067Z,10.18
2017-12-11T12:13:33.900Z,10.2
2017-12-11T12:14:49.832Z,10.21
2017-12-11T12:16:34.507Z,10.27
2017-12-11T12:20:45.665Z,10.35
2017-12-11T12:26:39.894Z,10.48
2017-12-11T12:27:54.010Z,10.53
2017-12-11T12:29:08.838Z,10.51
2017-12-11T12:30:26.777Z,10.51
2017-12-11T12:31:40.457Z,10.5
2017-12-11T12:32:56.625Z,10.53
2017-12-11T12:34:12.242Z,10.54
2017-12-11T12:35:26.966Z,10.55
2017-12-11T12:36:42.520Z,10.56
2017-12-11T12:37:58.057Z,10.57
2017-12-11T12:39:13.309Z,10.6
2017-12-11T12:40:31.999Z,10.62
2017-12-11T12:42:16.799Z,10.63
2017-12-11T12:44:23.636Z,10.65
2017-12-11T12:45:51.051Z,10.67
2017-12-11T12:47:06.893Z,10.69
2017-12-11T12:48:23.592Z,10.74
2017-12-11T12:49:38.957Z,10.76
2017-12-11T12:51:24.605Z,10.8
2017-12-11T12:53:23.866Z,10.84
2017-12-11T12:55:10.680Z,10.82
2017-12-11T12:56:44.666Z,10.78
2017-12-11T12:58:00.247Z,10.7
2017-12-11T12:59:21.952Z,10.63
2017-12-11T13:00:50.295Z,10.56
2017-12-11T13:02:04.331Z,10.52
2017-12-11T13:03:20.995Z,10.47
2017-12-11T13:04:35.489Z,10.45
2017-12-11T13:05:49.702Z,10.39
2017-12-11T13:07:04.182Z,10.38
2017-12-11T13:08:17.872Z,10.32
2017-12-11T13:09:31.690Z,10.29
2017-12-11T13:10:45.906Z,10.27
2017-12-11T13:11:59.742Z,10.26
2017-12-11T13:13:15.168Z,10.29
2017-12-11T13:14:29.854Z,10.31
2017-12-11T13:15:44.298Z,10.34
2017-12-11T13:17:03.175Z,10.37
2017-12-11T13:18:49.846Z,10.41
2017-12-11T13:20:40.878Z,10.48
2017-12-11T13:22:01.165Z,10.51
2017-12-11T13:23:15.093Z,10.52
2017-12-11T13:24:31.279Z,10.54
2017-12-11T13:25:47.044Z,10.53
2017-12-11T13:27:03.052Z,10.56
2017-12-11T13:28:17.142Z,10.55
2017-12-11T13:29:33.318Z,10.54
2017-12-11T13:30:47.493Z,10.53
2017-12-11T13:32:02.497Z,10.54
2017-12-11T13:33:17.164Z,10.55
2017-12-11T13:34:31.823Z,10.54
2017-12-11T13:35:47.385Z,10.53
2017-12-11T13:37:05.688Z,10.56
2017-12-11T13:38:26.761Z,10.57
2017-12-11T13:39:41.303Z,10.58
2017-12-11T13:40:55.542Z,10.62
2017-12-11T13:42:09.371Z,10.64
2017-12-11T13:43:24.053Z,10.65
2017-12-11T13:44:38.407Z,10.68
2017-12-11T13:45:52.291Z,10.69
2017-12-11T13:47:06.626Z,10.69
2017-12-11T13:48:20.267Z,10.7
2017-12-11T13:49:33.691Z,10.71
2017-12-11T13:50:47.287Z,10.73
2017-12-11T13:52:01.344Z,10.71
2017-12-11T13:53:14.747Z,10.72
2017-12-11T13:54:29.471Z,10.74
2017-12-11T13:55:44.663Z,10.75
2017-12-11T13:56:59.015Z,10.77
2017-12-11T13:58:13.741Z,10.79
2017-12-11T14:00:02.465Z,10.81
2017-12-11T14:03:54.295Z,10.91
2017-12-11T14:06:40.527Z,11.03
2017-12-11T14:07:54.846Z,11.08
2017-12-11T14:09:09.303Z,11.11
2017-12-11T14:10:24.592Z,11.12
2017-12-11T14:11:39.362Z,11.15
2017-12-11T14:12:56.552Z,11.16
2017-12-11T14:14:12.235Z,11.16
2017-12-11T14:15:26.821Z,11.18
2017-12-11T14:16:41.827Z,11.18
2017-12-11T14:18:05.549Z,11.19
2017-12-11T14:20:16.594Z,11.23
2017-12-11T14:21:30.560Z,11.25
2017-12-11T14:23:15.084Z,11.27
2017-12-11T14:28:50.560Z,11.31
2017-12-11T14:33:33.947Z,11.25
2017-12-11T14:35:36.943Z,11.23
2017-12-11T14:36:51.159Z,11.16
2017-12-11T14:38:10.628Z,11.08
2017-12-11T14:39:30.243Z,10.97
2017-12-11T14:40:47.955Z,10.92
2017-12-11T14:42:09.259Z,10.85
2017-12-11T14:43:34.250Z,10.8
2017-12-11T14:45:09.535Z,10.75
2017-12-11T14:46:23.624Z,10.71
2017-12-11T14:47:39.127Z,10.69
2017-12-11T14:49:32.933Z,10.67
2017-12-11T14:54:04.445Z,10.66
2017-12-11T14:55:44.698Z,10.71
2017-12-11T14:57:05.990Z,10.75
2017-12-11T14:58:43.220Z,10.78
2017-12-11T15:01:07.423Z,10.82
2017-12-11T15:02:35.166Z,10.83
2017-12-11T15:03:57.782Z,10.85
2017-12-11T15:05:11.630Z,10.9
2017-12-11T15:06:27.377Z,10.92
2017-12-11T15:07:41.782Z,10.96
2017-12-11T15:08:55.730Z,10.97
2017-12-11T15:10:13.021Z,10.96
2017-12-11T15:11:28.473Z,10.93
2017-12-11T15:12:42.808Z,10.91
2017-12-11T15:14:01.850Z,10.89
2017-12-11T15:15:20.823Z,10.85
2017-12-11T15:16:35.339Z,10.82
2017-12-11T15:17:55.036Z,10.76
2017-12-11T15:19:08.600Z,10.71
2017-12-11T15:20:23.092Z,10.65
2017-12-11T15:21:36.602Z,10.61
2017-12-11T15:22:51.393Z,10.57
2017-12-11T15:24:12.648Z,10.54
2017-12-11T15:25:36.714Z,10.48
2017-12-11T15:27:01.918Z,10.45
2017-12-11T15:28:50.714Z,10.42
2017-12-11T15:31:03.535Z,10.41
2017-12-11T15:33:07.341Z,10.39
2017-12-11T15:34:28.426Z,10.4
2017-12-11T15:35:42.432Z,10.43
2017-12-11T15:36:57.495Z,10.48
2017-12-11T15:38:14.390Z,10.5
2017-12-11T15:40:12.201Z,10.57
2017-12-11T15:43:47.222Z,10.7
2017-12-11T15:45:32.470Z,10.77
2017-12-11T15:47:01.058Z,10.81
2017-12-11T15:48:24.444Z,10.87
2017-12-11T15:49:46.248Z,10.9
2017-12-11T15:51:08.725Z,10.95
2017-12-11T15:52:26.272Z,11
2017-12-11T15:53:41.726Z,11.01
2017-12-11T15:54:56.470Z,11.06
2017-12-11T15:56:13.884Z,11.07
2017-12-11T15:57:30.159Z,11.09
2017-12-11T15:58:47.339Z,11.09
2017-12-11T16:00:06.490Z,11.09
2017-12-11T16:01:22.800Z,11.09
2017-12-11T16:02:37.083Z,11.1
2017-12-11T16:03:51.760Z,11.12
2017-12-11T16:05:05.552Z,11.11
2017-12-11T16:06:24.610Z,11.13
2017-12-11T16:07:40.668Z,11.12
2017-12-11T16:09:02.019Z,11.11
2017-12-11T16:10:43.708Z,11.09
2017-12-11T16:12:13.926Z,11.1
2017-12-11T16:13:39.463Z,11.1
2017-12-11T16:15:01.345Z,11.1
2017-12-11T16:16:16.282Z,11.1
2017-12-11T16:17:36.413Z,11.09
2017-12-11T16:18:54.404Z,11.06
2017-12-11T16:20:08.860Z,11.02
2017-12-11T16:21:27.403Z,10.99
2017-12-11T16:22:48.101Z,10.93
2017-12-11T16:24:16.001Z,10.87
2017-12-11T16:25:34.788Z,10.82
2017-12-11T16:26:50.049Z,10.78
2017-12-11T16:28:03.707Z,10.72
2017-12-11T16:29:17.242Z,10.68
2017-12-11T16:30:30.734Z,10.65
2017-12-11T16:31:44.889Z,10.64
2017-12-11T16:32:58.558Z,10.63
2017-12-11T16:34:12.298Z,10.63
2017-12-11T16:35:26.242Z,10.65
2017-12-11T16:36:39.872Z,10.65
2017-12-11T16:37:53.980Z,10.66
2017-12-11T16:39:08.209Z,10.66
2017-12-11T16:40:21.828Z,10.65
2017-12-11T16:41:35.309Z,10.66
2017-12-11T16:42:48.861Z,10.66
2017-12-11T16:44:02.598Z,10.69
2017-12-11T16:45:16.531Z,10.69
2017-12-11T16:46:31.134Z,10.67
2017-12-11T16:47:46.717Z,10.68
2017-12-11T16:49:06.826Z,10.69
2017-12-11T16:50:23.520Z,10.67
2017-12-11T16:51:45.139Z,10.65
2017-12-11T16:53:15.085Z,10.65
2017-12-11T16:54:51.965Z,10.63
2017-12-11T17:20:54.994Z,10.56
2017-12-11T17:22:09.986Z,10.58
2017-12-11T17:23:24.532Z,10.55
2017-12-11T17:24:39.172Z,10.53
2017-12-11T17:26:01.046Z,10.54
2017-12-11T17:27:24.195Z,10.53
2017-12-11T17:28:40.276Z,10.53
2017-12-11T17:29:57.004Z,10.53
2017-12-11T17:31:12.443Z,10.53
2017-12-11T17:32:32.872Z,10.54
2017-12-11T17:33:46.622Z,10.54
2017-12-11T17:35:00.390Z,10.53
2017-12-11T17:36:14.044Z,10.53
2017-12-11T17:37:28.311Z,10.54
2017-12-11T17:38:42.213Z,10.55
2017-12-11T17:39:56.192Z,10.56
2017-12-11T17:41:10.366Z,10.54
2017-12-11T17:42:26.247Z,10.54
2017-12-11T17:43:40.411Z,10.54
2017-12-11T17:44:55.010Z,10.52
2017-12-11T17:46:09.648Z,10.5
2017-12-11T17:47:25.002Z,10.52
2017-12-11T17:48:55.366Z,10.55
2017-12-11T17:52:26.516Z,10.54
2017-12-11T17:54:18.503Z,10.53
2017-12-11T17:55:34.122Z,10.53
2017-12-11T17:56:47.646Z,10.54
2017-12-11T17:58:01.095Z,10.55
2017-12-11T17:59:17.788Z,10.56
2017-12-11T18:00:31.678Z,10.57
2017-12-11T18:01:46.069Z,10.6
2017-12-11T18:02:59.764Z,10.59
2017-12-11T18:04:13.579Z,10.61
2017-12-11T18:05:28.216Z,10.62
2017-12-11T18:06:42.651Z,10.63
2017-12-11T18:07:56.654Z,10.63
2017-12-11T18:09:11.783Z,10.63
2017-12-11T18:10:31.851Z,10.64
2017-12-11T18:11:49.812Z,10.63
2017-12-11T18:13:04.362Z,10.63
2017-12-11T18:14:18.010Z,10.64
2017-12-11T18:15:31.704Z,10.64
2017-12-11T18:16:46.164Z,10.64
2017-12-11T18:17:59.657Z,10.63
2017-12-11T18:19:14.308Z,10.65
2017-12-11T18:20:28.379Z,10.62
2017-12-11T18:21:42.083Z,10.63
2017-12-11T18:22:56.170Z,10.63
2017-12-11T18:24:10.744Z,10.63
2017-12-11T18:25:24.284Z,10.64
2017-12-11T18:26:38.010Z,10.65
2017-12-11T18:27:53.549Z,10.63
2017-12-11T18:29:08.369Z,10.65
2017-12-11T18:30:22.203Z,10.64
2017-12-11T18:31:36.112Z,10.64
2017-12-11T18:32:50.992Z,10.65